Pagina principale
METAR-TAF:

METAR-TAF

Aeroporti :

Aeroporto di Ouagadougou

Ouagadougou, Burkina Faso

latitudine: 12-21N, longitudine: 001-31W, altezza: 316 m

Osservazione

Il bollettino è stato emesso 59 minuti fa, alle 14:00 UTC
Vento 8 kt da ovest/sud-ovest
Temperature 37°C
Umidità 37%
Pressione 1009 hPa
Visibilità 10 km o più
nessuna nube inferiore a 1500 m e nessun cumulonembo

METAR: DFFD 211400Z 24008KT CAVOK 37/20 Q1009 NOSIG

Ora: 14:59 (14:59 UTC)

Previsione

Il bollettino è stato emesso 3 ore e 59 minuti fa, alle 11:00 UTC
Previsione valida dal 21 alle 12 UTC al 22 alle 18 UTC
Vento 10 kt da ovest/sud-ovest
Visibilità 10 km o più
Poco nuvoloso ad un'altezza di 2600 ft
Temporaneamente
dal 21 alle 16 UTC al 22 alle 02 UTC
Visibilità: 4000 m
Nubi sparse ad un'altezza di 2600 ft
Poco nuvoloso ad un'altezza di 3600 ft, Cumulonembo.
temporale, pioggia

TAF: DFFD 211100Z 2112/2218 24010KT 9999 FEW026 TEMPO 2116/2202 4000 TSRA SCT026 FEW036CB

Osservazioni e previsioni meteorologiche di più di 4000 aeroporti (messaggi METAR e TAF).

Le stazioni disponibili sono rappresentate dai dischi gialli e rossi sulla carta.

Puntare il mouse per vedere il nome della stazione.

Clicca sopra per visualizzare le osservazioni e previsioni meteorologiche.

Per cambiare la mappa : fare clic sui pulsanti verdi con una croce nera per ingrandire, il pulsante verde con un trattino per diminuire, o sulla freccia verde per le mappe adiacenti.


METAR-TAF: